createdAt,value
2023-04-16T00:00:36.834Z,18.90
2023-04-16T00:03:04.389Z,18.77
2023-04-16T00:05:32.322Z,20.92
2023-04-16T00:07:59.067Z,22.60
2023-04-16T00:10:26.533Z,20.73
2023-04-16T00:12:53.504Z,19.95
2023-04-16T00:15:20.735Z,20.38
2023-04-16T00:17:48.301Z,19.77
2023-04-16T00:20:15.983Z,22.17
2023-04-16T00:22:43.529Z,20.77
2023-04-16T00:25:13.725Z,24.33
2023-04-16T00:27:41.309Z,26.05
2023-04-16T00:30:08.981Z,24.45
2023-04-16T00:32:37.347Z,24.83
2023-04-16T00:35:04.965Z,20.88
2023-04-16T00:37:33.941Z,26.10
2023-04-16T00:40:01.545Z,23.92
2023-04-16T00:42:28.643Z,26.83
2023-04-16T00:44:55.976Z,25.88
2023-04-16T00:47:26.093Z,22.92
2023-04-16T00:49:53.455Z,24.27
2023-04-16T00:52:21.670Z,23.52
2023-04-16T00:54:48.981Z,25.52
2023-04-16T00:57:16.811Z,26.48
2023-04-16T00:59:44.340Z,25.75
2023-04-16T01:02:12.896Z,25.73
2023-04-16T01:04:40.435Z,22.75
2023-04-16T01:07:07.829Z,24.60
2023-04-16T01:09:34.836Z,25.58
2023-04-16T01:12:03.583Z,24.35
2023-04-16T01:14:36.589Z,25.30
2023-04-16T01:19:32.424Z,26.10
2023-04-16T01:21:59.534Z,23.67
2023-04-16T01:24:26.787Z,27.45
2023-04-16T01:26:54.130Z,27.35
2023-04-16T01:29:21.222Z,25.48
2023-04-16T01:31:50.340Z,30.25
2023-04-16T01:34:37.919Z,29.45
2023-04-16T01:37:05.610Z,25.02
2023-04-16T01:39:32.646Z,24.65
2023-04-16T01:41:59.858Z,26.17
2023-04-16T01:44:28.177Z,22.60
2023-04-16T01:46:55.606Z,22.63
2023-04-16T01:49:23.939Z,28.50
2023-04-16T01:51:51.486Z,24.65
2023-04-16T01:54:18.409Z,28.13
2023-04-16T01:56:45.526Z,29.38
2023-04-16T01:59:12.503Z,26.20
2023-04-16T02:01:44.994Z,26.73
2023-04-16T02:04:12.801Z,36.75
2023-04-16T02:06:40.421Z,30.98
2023-04-16T02:09:07.826Z,23.90
2023-04-16T02:11:36.010Z,26.17
2023-04-16T02:14:03.809Z,25.67
2023-04-16T02:16:31.321Z,30.38
2023-04-16T02:19:18.666Z,29.17
2023-04-16T02:21:46.589Z,25.27
2023-04-16T02:24:14.323Z,31.92
2023-04-16T02:26:42.949Z,27.48
2023-04-16T02:29:15.104Z,30.23
2023-04-16T02:31:46.962Z,30.02
2023-04-16T02:34:15.012Z,25.92
2023-04-16T02:36:42.363Z,29.42
2023-04-16T02:39:10.240Z,28.63
2023-04-16T02:41:39.367Z,28.10
2023-04-16T02:44:09.801Z,29.70
2023-04-16T02:46:37.080Z,24.75
2023-04-16T02:49:04.057Z,24.02
2023-04-16T02:51:33.537Z,28.67
2023-04-16T02:54:01.134Z,22.50
2023-04-16T02:56:28.576Z,30.08
2023-04-16T02:58:56.202Z,30.08
2023-04-16T03:01:24.824Z,23.88
2023-04-16T03:03:56.543Z,28.63
2023-04-16T03:06:27.537Z,23.00
2023-04-16T03:08:56.597Z,29.88
2023-04-16T03:11:23.964Z,26.20
2023-04-16T03:13:51.176Z,30.40
2023-04-16T03:16:19.505Z,27.58
2023-04-16T03:18:49.426Z,27.50
2023-04-16T03:21:18.584Z,28.67
2023-04-16T03:23:49.223Z,29.35
2023-04-16T03:26:18.963Z,31.02
2023-04-16T03:28:49.133Z,26.73
2023-04-16T03:31:18.787Z,29.58
2023-04-16T03:33:49.612Z,23.10
2023-04-16T03:36:20.411Z,25.90
2023-04-16T03:38:49.340Z,30.73
2023-04-16T03:41:18.479Z,25.48
2023-04-16T03:43:47.144Z,28.42
2023-04-16T03:46:14.979Z,31.60
2023-04-16T03:48:42.745Z,25.63
2023-04-16T03:51:09.942Z,25.80
2023-04-16T03:53:37.305Z,24.88
2023-04-16T03:56:06.887Z,25.55
2023-04-16T03:58:35.623Z,25.75
2023-04-16T04:01:03.655Z,25.48
2023-04-16T04:03:32.490Z,27.23
2023-04-16T04:06:03.786Z,23.38
2023-04-16T04:08:33.412Z,25.70
2023-04-16T04:11:05.485Z,21.52
2023-04-16T04:13:35.268Z,22.33
2023-04-16T04:16:05.539Z,24.60
2023-04-16T04:18:34.421Z,20.95
2023-04-16T04:21:09.907Z,23.67
2023-04-16T04:23:41.224Z,23.65
2023-04-16T04:26:09.994Z,22.95
2023-04-16T04:28:38.010Z,24.30
2023-04-16T04:31:06.481Z,25.88
2023-04-16T04:33:34.560Z,22.58
2023-04-16T04:36:03.429Z,22.60
2023-04-16T04:38:33.980Z,21.88
2023-04-16T04:41:06.517Z,18.95
2023-04-16T04:43:36.847Z,20.17
2023-04-16T04:46:05.456Z,21.75
2023-04-16T04:48:33.669Z,20.85
2023-04-16T04:51:04.847Z,24.65
2023-04-16T04:53:34.494Z,19.15
2023-04-16T04:56:11.743Z,20.50
2023-04-16T04:58:42.140Z,21.90
2023-04-16T05:01:09.596Z,15.85
2023-04-16T05:03:37.198Z,18.67
2023-04-16T05:06:05.605Z,21.75
2023-04-16T05:08:33.979Z,23.95
2023-04-16T05:11:04.680Z,18.52
2023-04-16T05:13:31.598Z,21.88
2023-04-16T05:16:00.581Z,19.00
2023-04-16T05:18:27.957Z,17.42
2023-04-16T05:20:58.019Z,18.50
2023-04-16T05:23:25.861Z,19.63
2023-04-16T05:25:54.782Z,15.13
2023-04-16T05:28:21.818Z,15.93
2023-04-16T05:30:49.959Z,21.80
2023-04-16T05:33:19.284Z,17.98
2023-04-16T05:35:47.260Z,16.85
2023-04-16T05:38:16.592Z,11.70
2023-04-16T05:40:47.306Z,10.05
2023-04-16T05:43:16.150Z,16.40
2023-04-16T05:45:44.132Z,13.68
2023-04-16T05:48:13.015Z,13.77
2023-04-16T05:50:41.772Z,11.20
2023-04-16T05:53:09.642Z,15.55
2023-04-16T05:55:37.551Z,12.18
2023-04-16T05:58:07.263Z,14.05
2023-04-16T06:00:36.301Z,14.57
2023-04-16T06:03:05.504Z,13.40
2023-04-16T06:05:36.175Z,12.90
2023-04-16T06:08:04.551Z,15.45
2023-04-16T06:10:32.744Z,11.15
2023-04-16T06:13:05.409Z,12.70
2023-04-16T06:15:33.624Z,10.70
2023-04-16T06:18:03.568Z,11.35
2023-04-16T06:20:32.469Z,11.00
2023-04-16T06:23:02.596Z,11.10
2023-04-16T06:25:31.653Z,11.95
2023-04-16T06:27:59.596Z,9.52
2023-04-16T06:30:27.821Z,10.85
2023-04-16T06:32:56.016Z,11.48
2023-04-16T06:35:25.010Z,11.45
2023-04-16T06:37:53.932Z,8.73
2023-04-16T06:40:22.095Z,10.13
2023-04-16T06:42:50.623Z,11.63
2023-04-16T06:45:20.220Z,12.02
2023-04-16T06:47:48.707Z,9.20
2023-04-16T06:50:16.849Z,8.93
2023-04-16T06:52:46.277Z,7.95
2023-04-16T06:55:13.436Z,8.25
2023-04-16T06:57:42.467Z,9.13
2023-04-16T07:00:12.588Z,10.48
2023-04-16T07:02:40.003Z,9.38
2023-04-16T07:05:09.368Z,8.65
2023-04-16T07:07:38.816Z,9.57
2023-04-16T07:10:07.830Z,8.65
2023-04-16T07:12:36.220Z,9.23
2023-04-16T07:15:03.722Z,12.77
2023-04-16T07:17:32.617Z,9.90
2023-04-16T07:20:04.680Z,11.93
2023-04-16T07:22:34.286Z,12.80
2023-04-16T07:25:02.581Z,9.82
2023-04-16T07:27:33.025Z,12.07
2023-04-16T07:30:02.410Z,10.98
2023-04-16T07:32:33.595Z,11.95
2023-04-16T07:35:02.573Z,16.77
2023-04-16T07:37:34.861Z,13.35
2023-04-16T07:40:03.288Z,13.05
2023-04-16T07:42:31.389Z,8.98
2023-04-16T07:45:00.848Z,13.35
2023-04-16T07:47:30.180Z,10.45
2023-04-16T07:49:59.497Z,12.10
2023-04-16T07:52:28.376Z,11.32
2023-04-16T07:54:55.795Z,13.50
2023-04-16T07:57:25.057Z,11.02
2023-04-16T07:59:53.399Z,10.65
2023-04-16T08:02:25.287Z,11.40
2023-04-16T08:04:54.597Z,11.48
2023-04-16T08:07:22.551Z,11.88
2023-04-16T08:09:54.423Z,10.60
2023-04-16T08:12:23.089Z,11.02
2023-04-16T08:14:52.921Z,10.45
2023-04-16T08:17:21.170Z,10.82
2023-04-16T08:19:49.907Z,11.20
2023-04-16T08:22:18.120Z,11.77
2023-04-16T08:24:48.093Z,8.82
2023-04-16T08:27:19.762Z,11.00
2023-04-16T08:29:50.582Z,10.23
2023-04-16T08:35:02.172Z,12.32
2023-04-16T08:37:30.729Z,8.98
2023-04-16T08:40:00.393Z,8.75
2023-04-16T08:42:55.621Z,11.00
2023-04-16T08:45:30.032Z,13.57
2023-04-16T08:48:01.155Z,11.75
2023-04-16T08:50:31.979Z,9.40
2023-04-16T08:53:06.720Z,12.00
2023-04-16T08:55:41.454Z,10.25
2023-04-16T08:58:24.100Z,9.73
2023-04-16T09:00:54.491Z,8.60
2023-04-16T09:03:23.865Z,10.15
2023-04-16T09:06:01.136Z,10.18
2023-04-16T09:08:31.966Z,9.70
2023-04-16T09:11:00.680Z,9.30
2023-04-16T09:13:30.675Z,10.25
2023-04-16T09:16:01.391Z,12.07
2023-04-16T09:18:29.588Z,11.35
2023-04-16T09:20:58.607Z,11.30
2023-04-16T09:23:26.649Z,14.27
2023-04-16T09:25:58.880Z,9.60
2023-04-16T09:28:48.389Z,11.77
2023-04-16T09:31:22.252Z,10.10
2023-04-16T09:34:08.938Z,12.18
2023-04-16T09:36:38.156Z,13.48
2023-04-16T09:39:06.626Z,15.93
2023-04-16T09:41:40.696Z,10.93
2023-04-16T09:44:08.966Z,15.75
2023-04-16T09:46:45.264Z,12.98
2023-04-16T09:49:22.921Z,11.25
2023-04-16T09:51:53.539Z,11.68
2023-04-16T09:54:21.861Z,9.88
2023-04-16T09:56:50.023Z,12.95
2023-04-16T09:59:20.057Z,14.65
2023-04-16T10:01:47.505Z,14.85
2023-04-16T10:04:18.184Z,14.38
2023-04-16T10:07:04.790Z,14.73
2023-04-16T10:09:37.982Z,18.13
2023-04-16T10:12:09.266Z,13.45
2023-04-16T10:14:40.323Z,15.90
2023-04-16T10:17:11.889Z,18.55
2023-04-16T10:19:39.750Z,18.45
2023-04-16T10:22:07.303Z,19.73
2023-04-16T10:24:38.170Z,16.92
2023-04-16T10:27:05.895Z,20.00
2023-04-16T10:29:35.007Z,18.17
2023-04-16T10:32:04.205Z,17.65
2023-04-16T10:34:32.488Z,18.90
2023-04-16T10:36:59.894Z,15.32
2023-04-16T10:39:30.039Z,20.15
2023-04-16T10:42:18.898Z,16.38
2023-04-16T10:44:47.486Z,18.80
2023-04-16T10:47:14.796Z,17.73
2023-04-16T10:49:44.196Z,18.45
2023-04-16T10:52:18.338Z,24.00
2023-04-16T10:54:49.190Z,20.38
2023-04-16T10:57:18.802Z,19.52
2023-04-16T10:59:49.828Z,20.92
2023-04-16T11:02:18.776Z,24.85
2023-04-16T11:04:50.354Z,26.77
2023-04-16T11:07:34.510Z,23.42
2023-04-16T11:10:07.737Z,18.88
2023-04-16T11:12:42.458Z,19.52
2023-04-16T11:15:31.556Z,21.98
2023-04-16T11:18:00.597Z,21.08
2023-04-16T11:20:28.920Z,26.20
2023-04-16T11:22:57.994Z,27.58
2023-04-16T11:25:25.864Z,31.98
2023-04-16T11:27:55.432Z,29.30
2023-04-16T11:30:34.159Z,34.38
2023-04-16T11:33:14.666Z,30.63
2023-04-16T11:35:44.187Z,32.00
2023-04-16T11:38:11.248Z,39.88
2023-04-16T11:40:40.064Z,32.63
2023-04-16T11:43:16.642Z,34.70
2023-04-16T11:46:07.469Z,35.72
2023-04-16T11:48:49.848Z,39.85
2023-04-16T11:51:18.466Z,35.08
2023-04-16T11:53:51.077Z,39.90
2023-04-16T11:56:29.549Z,43.40
2023-04-16T11:59:12.533Z,40.13
2023-04-16T12:01:43.463Z,40.35
2023-04-16T12:04:13.920Z,32.53
2023-04-16T12:06:41.744Z,32.63
2023-04-16T12:09:28.286Z,36.38
2023-04-16T12:11:57.262Z,32.70
2023-04-16T12:14:25.214Z,30.75
2023-04-16T12:16:52.959Z,34.72
2023-04-16T12:19:21.306Z,33.30
2023-04-16T12:21:50.860Z,35.13
2023-04-16T12:24:24.605Z,30.38
2023-04-16T12:26:56.319Z,32.80
2023-04-16T12:29:28.683Z,28.85
2023-04-16T12:31:56.045Z,28.27
2023-04-16T12:34:25.569Z,33.42
2023-04-16T12:37:10.892Z,25.65
2023-04-16T12:39:38.584Z,29.88
2023-04-16T12:42:10.519Z,34.85
2023-04-16T12:44:38.321Z,29.30
2023-04-16T12:47:05.903Z,33.03
2023-04-16T12:49:32.897Z,26.50
2023-04-16T12:52:01.150Z,27.85
2023-04-16T12:54:32.038Z,26.33
2023-04-16T12:56:58.912Z,26.23
2023-04-16T12:59:26.713Z,28.55
2023-04-16T13:01:54.999Z,28.50
2023-04-16T13:04:25.479Z,31.50
2023-04-16T13:06:53.898Z,31.35
2023-04-16T13:09:21.039Z,28.15
2023-04-16T13:11:49.091Z,29.00
2023-04-16T13:14:16.631Z,27.05
2023-04-16T13:16:43.791Z,26.38
2023-04-16T13:19:11.645Z,29.77
2023-04-16T13:21:39.431Z,27.75
2023-04-16T13:24:06.887Z,26.13
2023-04-16T13:26:34.147Z,27.20
2023-04-16T13:29:01.858Z,27.75
2023-04-16T13:31:29.000Z,23.20
2023-04-16T13:33:57.078Z,28.38
2023-04-16T13:36:26.334Z,26.35
2023-04-16T13:38:55.204Z,24.75
2023-04-16T13:41:23.683Z,23.08
2023-04-16T13:43:51.552Z,23.95
2023-04-16T13:46:19.668Z,28.88
2023-04-16T13:48:47.543Z,23.05
2023-04-16T13:51:16.455Z,22.30
2023-04-16T13:53:43.986Z,20.67
2023-04-16T13:56:11.999Z,27.45
2023-04-16T13:58:39.872Z,25.38
2023-04-16T14:01:07.615Z,21.88
2023-04-16T14:03:37.951Z,24.13
2023-04-16T14:06:05.886Z,23.70
2023-04-16T14:08:32.881Z,19.92
2023-04-16T14:10:59.954Z,22.98
2023-04-16T14:13:27.492Z,26.60
2023-04-16T14:15:56.105Z,25.90
2023-04-16T14:18:23.249Z,23.23
2023-04-16T14:20:50.491Z,24.80
2023-04-16T14:23:17.700Z,27.02
2023-04-16T14:25:45.587Z,24.10
2023-04-16T14:28:15.536Z,27.60
2023-04-16T14:30:42.753Z,25.25
2023-04-16T14:33:10.114Z,25.58
2023-04-16T14:35:37.328Z,26.27
2023-04-16T14:38:04.886Z,26.45
2023-04-16T14:40:31.873Z,23.80
2023-04-16T14:42:59.181Z,29.02
2023-04-16T14:45:29.635Z,28.73
2023-04-16T14:48:03.513Z,19.90
2023-04-16T14:50:31.431Z,25.05
2023-04-16T14:52:58.499Z,24.42
2023-04-16T14:55:26.736Z,23.15
2023-04-16T14:57:54.320Z,28.42
2023-04-16T15:00:21.916Z,24.38
2023-04-16T15:02:49.309Z,27.55
2023-04-16T15:05:16.471Z,23.85
2023-04-16T15:07:44.560Z,23.55
2023-04-16T15:10:12.849Z,25.50
2023-04-16T15:12:40.312Z,27.23
2023-04-16T15:15:09.145Z,26.52
2023-04-16T15:17:37.016Z,25.92
2023-04-16T15:20:08.714Z,25.27
2023-04-16T15:22:36.456Z,25.97
2023-04-16T15:25:04.139Z,22.67
2023-04-16T15:27:32.511Z,27.10
2023-04-16T15:29:59.915Z,27.67
2023-04-16T15:32:28.226Z,27.25
2023-04-16T15:34:55.848Z,27.40
2023-04-16T15:37:24.299Z,26.48
2023-04-16T15:39:52.214Z,26.70
2023-04-16T15:42:19.481Z,27.55
2023-04-16T15:44:46.629Z,26.60
2023-04-16T15:47:13.734Z,23.73
2023-04-16T15:49:41.234Z,27.95
2023-04-16T15:52:09.000Z,22.85
2023-04-16T15:54:36.246Z,28.33
2023-04-16T15:57:04.044Z,24.05
2023-04-16T15:59:31.756Z,23.02
2023-04-16T16:01:59.143Z,26.08
2023-04-16T16:04:26.937Z,22.33
2023-04-16T16:06:54.781Z,21.75
2023-04-16T16:09:26.564Z,23.42
2023-04-16T16:11:56.378Z,15.52
2023-04-16T16:14:24.010Z,22.27
2023-04-16T16:16:51.527Z,22.58
2023-04-16T16:19:18.773Z,19.80
2023-04-16T16:21:45.985Z,21.05
2023-04-16T16:24:14.319Z,21.73
2023-04-16T16:26:42.175Z,28.73
2023-04-16T16:29:10.333Z,21.90
2023-04-16T16:31:38.262Z,20.23
2023-04-16T16:34:05.762Z,19.45
2023-04-16T16:36:36.802Z,22.63
2023-04-16T16:39:05.104Z,21.55
2023-04-16T16:41:32.796Z,21.30
2023-04-16T16:44:00.462Z,23.75
2023-04-16T16:46:27.632Z,22.17
2023-04-16T16:48:55.042Z,25.48
2023-04-16T16:51:22.372Z,23.05
2023-04-16T16:53:49.528Z,23.42
2023-04-16T16:56:16.856Z,25.05
2023-04-16T16:58:44.298Z,24.13
2023-04-16T17:01:12.007Z,27.25
2023-04-16T17:03:39.190Z,26.48
2023-04-16T17:06:06.968Z,23.48
2023-04-16T17:08:33.934Z,29.02
2023-04-16T17:11:04.479Z,28.23
2023-04-16T17:13:33.057Z,25.15
2023-04-16T17:16:00.157Z,29.20
2023-04-16T17:18:28.862Z,25.35
2023-04-16T17:20:55.806Z,28.98
2023-04-16T17:23:22.969Z,29.95
2023-04-16T17:25:50.038Z,29.50
2023-04-16T17:28:17.578Z,25.95
2023-04-16T17:30:45.455Z,25.38
2023-04-16T17:33:12.622Z,32.00
2023-04-16T17:35:40.909Z,26.65
2023-04-16T17:38:07.931Z,27.63
2023-04-16T17:40:34.716Z,27.45
2023-04-16T17:43:01.529Z,28.98
2023-04-16T17:45:28.594Z,25.77
2023-04-16T17:47:55.585Z,32.17
2023-04-16T17:50:22.736Z,31.95
2023-04-16T17:52:50.003Z,26.95
2023-04-16T17:55:17.295Z,31.20
2023-04-16T17:57:45.007Z,30.45
2023-04-16T18:00:12.753Z,26.10
2023-04-16T18:02:41.268Z,27.40
2023-04-16T18:05:08.831Z,26.90
2023-04-16T18:07:36.908Z,31.35
2023-04-16T18:10:04.586Z,26.58
2023-04-16T18:12:32.176Z,35.05
2023-04-16T18:14:59.658Z,25.88
2023-04-16T18:17:26.972Z,28.77
2023-04-16T18:19:54.283Z,32.42
2023-04-16T18:22:21.818Z,27.58
2023-04-16T18:24:48.921Z,32.08
2023-04-16T18:27:16.767Z,30.58
2023-04-16T18:29:45.238Z,29.65
2023-04-16T18:32:12.674Z,35.15
2023-04-16T18:34:39.708Z,31.92
2023-04-16T18:37:06.927Z,28.80
2023-04-16T18:39:34.172Z,27.10
2023-04-16T18:42:02.062Z,26.92
2023-04-16T18:44:29.521Z,24.73
2023-04-16T18:46:57.074Z,29.80
2023-04-16T18:49:24.898Z,28.05
2023-04-16T18:51:52.240Z,31.02
2023-04-16T18:54:20.571Z,32.13
2023-04-16T18:56:50.471Z,32.03
2023-04-16T18:59:17.304Z,28.75
2023-04-16T19:01:44.494Z,26.60
2023-04-16T19:04:11.920Z,26.63
2023-04-16T19:06:39.328Z,26.65
2023-04-16T19:09:07.875Z,27.95
2023-04-16T19:11:35.852Z,31.38
2023-04-16T19:14:03.609Z,31.05
2023-04-16T19:16:30.923Z,29.33
2023-04-16T19:18:58.328Z,28.92
2023-04-16T19:21:26.047Z,29.02
2023-04-16T19:23:53.016Z,31.23
2023-04-16T19:26:20.290Z,28.55
2023-04-16T19:28:47.680Z,27.17
2023-04-16T19:31:14.899Z,32.38
2023-04-16T19:33:41.979Z,34.58
2023-04-16T19:36:09.205Z,30.58
2023-04-16T19:38:36.108Z,31.27
2023-04-16T19:41:03.231Z,28.77
2023-04-16T19:43:31.164Z,33.33
2023-04-16T19:45:58.243Z,35.25
2023-04-16T19:48:25.168Z,33.22
2023-04-16T19:50:52.423Z,28.65
2023-04-16T19:53:19.310Z,26.60
2023-04-16T19:55:46.360Z,27.55
2023-04-16T19:58:14.865Z,34.97
2023-04-16T20:00:42.528Z,29.42
2023-04-16T20:03:10.248Z,30.52
2023-04-16T20:05:37.357Z,33.97
2023-04-16T20:08:04.509Z,27.23
2023-04-16T20:10:31.723Z,29.17
2023-04-16T20:12:58.729Z,33.25
2023-04-16T20:15:26.000Z,27.08
2023-04-16T20:17:55.671Z,29.70
2023-04-16T20:20:23.852Z,31.30
2023-04-16T20:22:51.087Z,26.02
2023-04-16T20:25:21.802Z,34.50
2023-04-16T20:27:48.552Z,28.63
2023-04-16T20:30:15.703Z,29.83
2023-04-16T20:32:42.902Z,26.55
2023-04-16T20:35:13.288Z,30.67
2023-04-16T20:37:42.343Z,30.83
2023-04-16T20:40:11.025Z,25.75
2023-04-16T20:42:38.180Z,26.58
2023-04-16T20:45:05.806Z,30.92
2023-04-16T20:47:35.110Z,26.42
2023-04-16T20:50:03.108Z,28.17
2023-04-16T20:52:30.371Z,24.67
2023-04-16T20:54:58.199Z,28.40
2023-04-16T20:57:25.910Z,29.48
2023-04-16T20:59:53.087Z,28.77
2023-04-16T21:02:20.848Z,27.48
2023-04-16T21:04:48.349Z,21.65
2023-04-16T21:07:15.849Z,26.38
2023-04-16T21:09:42.591Z,26.83
2023-04-16T21:12:09.786Z,22.70
2023-04-16T21:14:36.709Z,27.85
2023-04-16T21:17:03.888Z,23.98
2023-04-16T21:19:31.140Z,28.38
2023-04-16T21:21:58.271Z,27.63
2023-04-16T21:24:25.440Z,30.27
2023-04-16T21:26:52.763Z,28.25
2023-04-16T21:29:19.561Z,31.30
2023-04-16T21:31:46.846Z,23.38
2023-04-16T21:34:14.028Z,25.85
2023-04-16T21:36:41.189Z,26.75
2023-04-16T21:39:08.326Z,25.67
2023-04-16T21:41:35.140Z,24.88
2023-04-16T21:44:02.148Z,26.52
2023-04-16T21:46:29.457Z,28.73
2023-04-16T21:48:56.739Z,27.08
2023-04-16T21:51:29.521Z,25.13
2023-04-16T21:53:57.277Z,26.95
2023-04-16T21:56:27.819Z,26.15
2023-04-16T21:58:54.820Z,25.08
2023-04-16T22:01:22.225Z,25.15
2023-04-16T22:03:50.943Z,24.30
2023-04-16T22:06:18.740Z,24.48
2023-04-16T22:08:46.410Z,28.10
2023-04-16T22:11:13.386Z,27.60
2023-04-16T22:13:42.514Z,26.85
2023-04-16T22:16:11.594Z,28.45
2023-04-16T22:18:39.901Z,27.98
2023-04-16T22:21:07.120Z,29.63
2023-04-16T22:23:33.977Z,26.80
2023-04-16T22:26:02.964Z,28.90
2023-04-16T22:28:30.178Z,28.75
2023-04-16T22:30:57.651Z,31.13
2023-04-16T22:33:24.768Z,29.90
2023-04-16T22:35:53.735Z,32.00
2023-04-16T22:38:21.387Z,33.35
2023-04-16T22:40:49.162Z,28.92
2023-04-16T22:43:17.907Z,27.23
2023-04-16T22:45:46.459Z,24.88
2023-04-16T22:48:13.501Z,24.42
2023-04-16T22:50:46.198Z,28.00
2023-04-16T22:55:40.009Z,28.45
2023-04-16T22:58:07.195Z,26.17
2023-04-16T23:00:35.501Z,23.73
2023-04-16T23:03:02.889Z,29.60
2023-04-16T23:05:30.024Z,25.77
2023-04-16T23:07:57.123Z,26.77
2023-04-16T23:10:24.334Z,23.90
2023-04-16T23:12:51.387Z,25.30
2023-04-16T23:15:18.847Z,24.30
2023-04-16T23:17:47.672Z,25.05
2023-04-16T23:20:14.918Z,21.80
2023-04-16T23:22:42.118Z,21.63
2023-04-16T23:25:10.079Z,24.38
2023-04-16T23:27:37.668Z,21.00
2023-04-16T23:30:05.572Z,24.83
2023-04-16T23:32:34.471Z,25.25
2023-04-16T23:35:01.726Z,25.55
2023-04-16T23:37:28.767Z,24.10
2023-04-16T23:39:55.965Z,21.13
2023-04-16T23:42:22.779Z,23.40
2023-04-16T23:44:49.812Z,20.45
2023-04-16T23:47:17.058Z,24.52
2023-04-16T23:49:43.928Z,21.85
2023-04-16T23:52:10.966Z,21.58
2023-04-16T23:54:38.087Z,19.27
2023-04-16T23:57:05.329Z,21.15
2023-04-16T23:59:32.387Z,16.42
